sensor_id;sensor_type;location;lat;lon;timestamp;P1;durP1;ratioP1;P2;durP2;ratioP2
12145;SDS011;6136;47.032;15.398;2022-11-15T00:02:35;79.17;;;31.43;;
12145;SDS011;6136;47.032;15.398;2022-11-15T00:05:21;79.67;;;32.73;;
12145;SDS011;6136;47.032;15.398;2022-11-15T00:08:09;73.83;;;30.63;;
12145;SDS011;6136;47.032;15.398;2022-11-15T00:10:57;74.47;;;30.00;;
12145;SDS011;6136;47.032;15.398;2022-11-15T00:13:44;78.37;;;31.80;;
12145;SDS011;6136;47.032;15.398;2022-11-15T00:16:31;85.77;;;33.00;;
12145;SDS011;6136;47.032;15.398;2022-11-15T00:19:18;85.60;;;34.70;;
12145;SDS011;6136;47.032;15.398;2022-11-15T00:22:04;79.87;;;30.67;;
12145;SDS011;6136;47.032;15.398;2022-11-15T00:24:52;64.00;;;30.40;;
12145;SDS011;6136;47.032;15.398;2022-11-15T00:27:39;73.50;;;30.60;;
12145;SDS011;6136;47.032;15.398;2022-11-15T00:30:26;75.40;;;32.20;;
12145;SDS011;6136;47.032;15.398;2022-11-15T00:33:13;82.23;;;34.67;;
12145;SDS011;6136;47.032;15.398;2022-11-15T00:36:00;75.50;;;33.73;;
12145;SDS011;6136;47.032;15.398;2022-11-15T00:38:49;82.20;;;33.27;;
12145;SDS011;6136;47.032;15.398;2022-11-15T00:41:37;72.77;;;32.17;;
12145;SDS011;6136;47.032;15.398;2022-11-15T00:44:24;69.47;;;31.03;;
12145;SDS011;6136;47.032;15.398;2022-11-15T00:47:10;71.40;;;32.23;;
12145;SDS011;6136;47.032;15.398;2022-11-15T00:49:57;76.17;;;32.23;;
12145;SDS011;6136;47.032;15.398;2022-11-15T00:52:44;76.87;;;31.37;;
12145;SDS011;6136;47.032;15.398;2022-11-15T00:55:31;79.90;;;33.03;;
12145;SDS011;6136;47.032;15.398;2022-11-15T00:58:19;62.30;;;30.97;;
12145;SDS011;6136;47.032;15.398;2022-11-15T01:01:07;75.77;;;31.83;;
12145;SDS011;6136;47.032;15.398;2022-11-15T01:03:55;69.57;;;32.43;;
12145;SDS011;6136;47.032;15.398;2022-11-15T01:06:45;75.33;;;31.50;;
12145;SDS011;6136;47.032;15.398;2022-11-15T01:09:32;78.90;;;32.43;;
12145;SDS011;6136;47.032;15.398;2022-11-15T01:12:19;71.40;;;32.70;;
12145;SDS011;6136;47.032;15.398;2022-11-15T01:15:07;75.67;;;33.53;;
12145;SDS011;6136;47.032;15.398;2022-11-15T01:17:54;68.27;;;31.37;;
12145;SDS011;6136;47.032;15.398;2022-11-15T01:20:41;70.60;;;32.10;;
12145;SDS011;6136;47.032;15.398;2022-11-15T01:23:28;81.90;;;32.60;;
12145;SDS011;6136;47.032;15.398;2022-11-15T01:26:15;76.13;;;29.80;;
12145;SDS011;6136;47.032;15.398;2022-11-15T01:29:02;77.47;;;33.47;;
12145;SDS011;6136;47.032;15.398;2022-11-15T01:31:52;68.57;;;31.63;;
12145;SDS011;6136;47.032;15.398;2022-11-15T01:34:39;80.13;;;32.43;;
12145;SDS011;6136;47.032;15.398;2022-11-15T01:37:26;82.43;;;34.50;;
12145;SDS011;6136;47.032;15.398;2022-11-15T01:40:13;67.53;;;31.13;;
12145;SDS011;6136;47.032;15.398;2022-11-15T01:46:06;64.80;;;30.63;;
12145;SDS011;6136;47.032;15.398;2022-11-15T01:49:03;72.43;;;31.37;;
12145;SDS011;6136;47.032;15.398;2022-11-15T01:51:56;80.37;;;31.83;;
12145;SDS011;6136;47.032;15.398;2022-11-15T01:54:44;70.57;;;31.17;;
12145;SDS011;6136;47.032;15.398;2022-11-15T01:57:31;80.93;;;32.23;;
12145;SDS011;6136;47.032;15.398;2022-11-15T02:00:18;65.07;;;30.63;;
12145;SDS011;6136;47.032;15.398;2022-11-15T02:03:05;78.90;;;32.60;;
12145;SDS011;6136;47.032;15.398;2022-11-15T02:05:54;79.50;;;32.53;;
12145;SDS011;6136;47.032;15.398;2022-11-15T02:08:41;66.73;;;31.60;;
12145;SDS011;6136;47.032;15.398;2022-11-15T02:11:28;71.50;;;32.57;;
12145;SDS011;6136;47.032;15.398;2022-11-15T02:14:16;70.80;;;30.87;;
12145;SDS011;6136;47.032;15.398;2022-11-15T02:17:07;63.97;;;29.30;;
12145;SDS011;6136;47.032;15.398;2022-11-15T02:23:35;66.07;;;30.73;;
12145;SDS011;6136;47.032;15.398;2022-11-15T02:26:48;64.10;;;30.80;;
12145;SDS011;6136;47.032;15.398;2022-11-15T02:33:07;70.33;;;29.67;;
12145;SDS011;6136;47.032;15.398;2022-11-15T02:36:05;72.50;;;32.37;;
12145;SDS011;6136;47.032;15.398;2022-11-15T02:38:58;70.57;;;31.80;;
12145;SDS011;6136;47.032;15.398;2022-11-15T02:41:50;75.83;;;31.27;;
12145;SDS011;6136;47.032;15.398;2022-11-15T02:44:42;76.97;;;32.27;;
12145;SDS011;6136;47.032;15.398;2022-11-15T02:47:32;62.53;;;29.97;;
12145;SDS011;6136;47.032;15.398;2022-11-15T02:50:24;68.60;;;32.73;;
12145;SDS011;6136;47.032;15.398;2022-11-15T02:53:13;68.30;;;33.03;;
12145;SDS011;6136;47.032;15.398;2022-11-15T02:56:00;66.50;;;29.47;;
12145;SDS011;6136;47.032;15.398;2022-11-15T02:59:02;66.57;;;31.20;;
12145;SDS011;6136;47.032;15.398;2022-11-15T03:02:04;64.47;;;29.50;;
12145;SDS011;6136;47.032;15.398;2022-11-15T03:05:04;65.47;;;31.93;;
12145;SDS011;6136;47.032;15.398;2022-11-15T03:08:02;67.97;;;30.10;;
12145;SDS011;6136;47.032;15.398;2022-11-15T03:10:56;71.27;;;30.57;;
12145;SDS011;6136;47.032;15.398;2022-11-15T03:13:50;65.80;;;30.83;;
12145;SDS011;6136;47.032;15.398;2022-11-15T03:16:44;67.53;;;29.67;;
12145;SDS011;6136;47.032;15.398;2022-11-15T03:19:35;61.83;;;29.37;;
12145;SDS011;6136;47.032;15.398;2022-11-15T03:22:29;61.67;;;28.17;;
12145;SDS011;6136;47.032;15.398;2022-11-15T03:25:19;72.20;;;29.90;;
12145;SDS011;6136;47.032;15.398;2022-11-15T03:28:09;60.43;;;27.93;;
12145;SDS011;6136;47.032;15.398;2022-11-15T03:31:01;61.47;;;27.43;;
12145;SDS011;6136;47.032;15.398;2022-11-15T03:34:10;60.73;;;28.03;;
12145;SDS011;6136;47.032;15.398;2022-11-15T03:37:04;57.53;;;26.50;;
12145;SDS011;6136;47.032;15.398;2022-11-15T03:39:54;62.43;;;28.23;;
12145;SDS011;6136;47.032;15.398;2022-11-15T03:42:42;52.87;;;27.03;;
12145;SDS011;6136;47.032;15.398;2022-11-15T03:45:35;49.90;;;26.10;;
12145;SDS011;6136;47.032;15.398;2022-11-15T03:48:26;53.33;;;26.77;;
12145;SDS011;6136;47.032;15.398;2022-11-15T03:51:16;52.20;;;25.93;;
12145;SDS011;6136;47.032;15.398;2022-11-15T03:54:04;45.10;;;23.93;;
12145;SDS011;6136;47.032;15.398;2022-11-15T03:56:52;51.00;;;26.00;;
12145;SDS011;6136;47.032;15.398;2022-11-15T03:59:39;46.50;;;25.03;;
12145;SDS011;6136;47.032;15.398;2022-11-15T04:02:26;49.27;;;24.73;;
12145;SDS011;6136;47.032;15.398;2022-11-15T04:05:13;47.37;;;23.57;;
12145;SDS011;6136;47.032;15.398;2022-11-15T04:07:59;52.87;;;25.70;;
12145;SDS011;6136;47.032;15.398;2022-11-15T04:10:48;62.93;;;27.63;;
12145;SDS011;6136;47.032;15.398;2022-11-15T04:13:36;57.80;;;27.07;;
12145;SDS011;6136;47.032;15.398;2022-11-15T04:16:22;54.10;;;26.87;;
12145;SDS011;6136;47.032;15.398;2022-11-15T04:19:09;55.70;;;27.73;;
12145;SDS011;6136;47.032;15.398;2022-11-15T04:22:13;58.37;;;27.07;;
12145;SDS011;6136;47.032;15.398;2022-11-15T04:25:17;50.30;;;26.40;;
12145;SDS011;6136;47.032;15.398;2022-11-15T04:28:07;49.93;;;25.40;;
12145;SDS011;6136;47.032;15.398;2022-11-15T04:30:55;54.90;;;26.23;;
12145;SDS011;6136;47.032;15.398;2022-11-15T04:33:42;49.97;;;25.07;;
12145;SDS011;6136;47.032;15.398;2022-11-15T04:36:29;48.60;;;27.00;;
12145;SDS011;6136;47.032;15.398;2022-11-15T04:39:33;51.63;;;24.57;;
12145;SDS011;6136;47.032;15.398;2022-11-15T04:42:19;50.07;;;24.10;;
12145;SDS011;6136;47.032;15.398;2022-11-15T04:45:06;45.80;;;23.60;;
12145;SDS011;6136;47.032;15.398;2022-11-15T04:47:54;45.57;;;25.00;;
12145;SDS011;6136;47.032;15.398;2022-11-15T04:50:41;47.93;;;25.03;;
12145;SDS011;6136;47.032;15.398;2022-11-15T04:53:28;44.07;;;22.77;;
12145;SDS011;6136;47.032;15.398;2022-11-15T04:56:15;44.00;;;23.90;;
12145;SDS011;6136;47.032;15.398;2022-11-15T04:59:01;45.87;;;23.70;;
12145;SDS011;6136;47.032;15.398;2022-11-15T05:01:49;44.27;;;23.73;;
12145;SDS011;6136;47.032;15.398;2022-11-15T05:04:36;53.00;;;25.27;;
12145;SDS011;6136;47.032;15.398;2022-11-15T05:07:22;44.57;;;23.47;;
12145;SDS011;6136;47.032;15.398;2022-11-15T05:10:08;45.93;;;23.77;;
12145;SDS011;6136;47.032;15.398;2022-11-15T05:13:01;42.43;;;23.77;;
12145;SDS011;6136;47.032;15.398;2022-11-15T05:15:49;45.93;;;23.70;;
12145;SDS011;6136;47.032;15.398;2022-11-15T05:18:35;41.17;;;22.50;;
12145;SDS011;6136;47.032;15.398;2022-11-15T05:21:27;42.87;;;23.33;;
12145;SDS011;6136;47.032;15.398;2022-11-15T05:24:14;42.03;;;22.37;;
12145;SDS011;6136;47.032;15.398;2022-11-15T05:27:01;50.37;;;25.90;;
12145;SDS011;6136;47.032;15.398;2022-11-15T05:29:47;50.20;;;25.80;;
12145;SDS011;6136;47.032;15.398;2022-11-15T05:32:34;52.67;;;23.97;;
12145;SDS011;6136;47.032;15.398;2022-11-15T05:35:22;60.43;;;25.97;;
12145;SDS011;6136;47.032;15.398;2022-11-15T05:38:17;54.83;;;27.30;;
12145;SDS011;6136;47.032;15.398;2022-11-15T05:41:04;53.80;;;25.80;;
12145;SDS011;6136;47.032;15.398;2022-11-15T05:43:51;52.17;;;25.40;;
12145;SDS011;6136;47.032;15.398;2022-11-15T05:46:39;54.33;;;26.33;;
12145;SDS011;6136;47.032;15.398;2022-11-15T05:49:29;53.27;;;24.77;;
12145;SDS011;6136;47.032;15.398;2022-11-15T05:52:19;54.67;;;26.20;;
12145;SDS011;6136;47.032;15.398;2022-11-15T05:55:09;52.13;;;26.43;;
12145;SDS011;6136;47.032;15.398;2022-11-15T05:57:56;57.07;;;25.23;;
12145;SDS011;6136;47.032;15.398;2022-11-15T06:00:42;53.40;;;26.30;;
12145;SDS011;6136;47.032;15.398;2022-11-15T06:03:29;62.40;;;27.33;;
12145;SDS011;6136;47.032;15.398;2022-11-15T06:06:16;65.90;;;26.80;;
12145;SDS011;6136;47.032;15.398;2022-11-15T06:09:03;63.43;;;29.20;;
12145;SDS011;6136;47.032;15.398;2022-11-15T06:11:51;69.50;;;30.17;;
12145;SDS011;6136;47.032;15.398;2022-11-15T06:14:37;64.37;;;26.17;;
12145;SDS011;6136;47.032;15.398;2022-11-15T06:17:24;68.07;;;27.23;;
12145;SDS011;6136;47.032;15.398;2022-11-15T06:20:10;64.57;;;28.30;;
12145;SDS011;6136;47.032;15.398;2022-11-15T06:22:57;63.83;;;27.17;;
12145;SDS011;6136;47.032;15.398;2022-11-15T06:25:45;58.10;;;26.03;;
12145;SDS011;6136;47.032;15.398;2022-11-15T06:28:32;65.03;;;26.47;;
12145;SDS011;6136;47.032;15.398;2022-11-15T06:31:20;54.50;;;26.13;;
12145;SDS011;6136;47.032;15.398;2022-11-15T06:34:06;64.70;;;28.80;;
12145;SDS011;6136;47.032;15.398;2022-11-15T06:36:53;59.83;;;27.40;;
12145;SDS011;6136;47.032;15.398;2022-11-15T06:39:39;64.23;;;26.30;;
12145;SDS011;6136;47.032;15.398;2022-11-15T06:42:25;60.53;;;26.93;;
12145;SDS011;6136;47.032;15.398;2022-11-15T06:45:14;63.50;;;27.67;;
12145;SDS011;6136;47.032;15.398;2022-11-15T06:48:00;53.60;;;25.40;;
12145;SDS011;6136;47.032;15.398;2022-11-15T06:50:49;62.77;;;27.20;;
12145;SDS011;6136;47.032;15.398;2022-11-15T06:53:36;71.17;;;28.53;;
12145;SDS011;6136;47.032;15.398;2022-11-15T06:56:23;59.97;;;27.57;;
12145;SDS011;6136;47.032;15.398;2022-11-15T06:59:10;61.40;;;28.57;;
12145;SDS011;6136;47.032;15.398;2022-11-15T07:01:58;69.40;;;26.73;;
12145;SDS011;6136;47.032;15.398;2022-11-15T07:04:44;72.20;;;27.23;;
12145;SDS011;6136;47.032;15.398;2022-11-15T07:07:31;63.67;;;27.90;;
12145;SDS011;6136;47.032;15.398;2022-11-15T07:10:18;69.53;;;29.23;;
12145;SDS011;6136;47.032;15.398;2022-11-15T07:13:05;74.10;;;28.33;;
12145;SDS011;6136;47.032;15.398;2022-11-15T07:15:51;66.90;;;27.57;;
12145;SDS011;6136;47.032;15.398;2022-11-15T07:18:40;63.80;;;28.03;;
12145;SDS011;6136;47.032;15.398;2022-11-15T07:21:26;72.60;;;25.87;;
12145;SDS011;6136;47.032;15.398;2022-11-15T07:24:13;66.23;;;29.40;;
12145;SDS011;6136;47.032;15.398;2022-11-15T07:26:59;58.50;;;27.27;;
12145;SDS011;6136;47.032;15.398;2022-11-15T07:29:46;66.07;;;27.47;;
12145;SDS011;6136;47.032;15.398;2022-11-15T07:32:32;70.83;;;27.30;;
12145;SDS011;6136;47.032;15.398;2022-11-15T07:35:21;85.13;;;28.17;;
12145;SDS011;6136;47.032;15.398;2022-11-15T07:38:08;62.13;;;27.03;;
12145;SDS011;6136;47.032;15.398;2022-11-15T07:40:55;76.07;;;29.93;;
12145;SDS011;6136;47.032;15.398;2022-11-15T07:43:43;63.47;;;27.50;;
12145;SDS011;6136;47.032;15.398;2022-11-15T07:46:30;67.50;;;28.07;;
12145;SDS011;6136;47.032;15.398;2022-11-15T07:49:17;68.03;;;27.90;;
12145;SDS011;6136;47.032;15.398;2022-11-15T07:52:05;74.77;;;29.20;;
12145;SDS011;6136;47.032;15.398;2022-11-15T07:54:52;68.90;;;29.17;;
12145;SDS011;6136;47.032;15.398;2022-11-15T07:57:38;58.00;;;26.50;;
12145;SDS011;6136;47.032;15.398;2022-11-15T08:00:24;73.70;;;29.43;;
12145;SDS011;6136;47.032;15.398;2022-11-15T08:03:11;66.73;;;27.80;;
12145;SDS011;6136;47.032;15.398;2022-11-15T08:06:00;67.63;;;28.73;;
12145;SDS011;6136;47.032;15.398;2022-11-15T08:08:48;62.47;;;26.10;;
12145;SDS011;6136;47.032;15.398;2022-11-15T08:11:35;77.00;;;29.67;;
12145;SDS011;6136;47.032;15.398;2022-11-15T08:14:21;77.43;;;28.57;;
12145;SDS011;6136;47.032;15.398;2022-11-15T08:17:08;62.27;;;27.27;;
12145;SDS011;6136;47.032;15.398;2022-11-15T08:19:55;60.73;;;26.57;;
12145;SDS011;6136;47.032;15.398;2022-11-15T08:22:41;62.90;;;28.53;;
12145;SDS011;6136;47.032;15.398;2022-11-15T08:25:30;62.10;;;27.93;;
12145;SDS011;6136;47.032;15.398;2022-11-15T08:28:17;68.20;;;27.97;;
12145;SDS011;6136;47.032;15.398;2022-11-15T08:31:03;56.93;;;25.63;;
12145;SDS011;6136;47.032;15.398;2022-11-15T08:33:50;62.83;;;26.90;;
12145;SDS011;6136;47.032;15.398;2022-11-15T08:36:36;56.17;;;25.63;;
12145;SDS011;6136;47.032;15.398;2022-11-15T08:39:29;54.40;;;23.33;;
12145;SDS011;6136;47.032;15.398;2022-11-15T08:42:18;57.33;;;24.00;;
12145;SDS011;6136;47.032;15.398;2022-11-15T08:45:04;60.87;;;25.73;;
12145;SDS011;6136;47.032;15.398;2022-11-15T08:47:52;60.77;;;25.53;;
12145;SDS011;6136;47.032;15.398;2022-11-15T08:50:38;61.47;;;25.70;;
12145;SDS011;6136;47.032;15.398;2022-11-15T08:53:25;60.53;;;26.77;;
12145;SDS011;6136;47.032;15.398;2022-11-15T08:56:12;59.33;;;25.37;;
12145;SDS011;6136;47.032;15.398;2022-11-15T08:59:01;56.47;;;25.47;;
12145;SDS011;6136;47.032;15.398;2022-11-15T09:01:48;67.73;;;25.83;;
12145;SDS011;6136;47.032;15.398;2022-11-15T09:04:35;51.87;;;25.10;;
12145;SDS011;6136;47.032;15.398;2022-11-15T09:07:21;57.43;;;26.40;;
12145;SDS011;6136;47.032;15.398;2022-11-15T09:10:08;54.40;;;24.60;;
12145;SDS011;6136;47.032;15.398;2022-11-15T09:12:56;59.60;;;25.63;;
12145;SDS011;6136;47.032;15.398;2022-11-15T09:15:44;58.50;;;25.47;;
12145;SDS011;6136;47.032;15.398;2022-11-15T09:18:31;57.87;;;26.03;;
12145;SDS011;6136;47.032;15.398;2022-11-15T09:21:18;56.97;;;25.47;;
12145;SDS011;6136;47.032;15.398;2022-11-15T09:24:05;52.93;;;24.23;;
12145;SDS011;6136;47.032;15.398;2022-11-15T09:26:51;52.57;;;24.50;;
12145;SDS011;6136;47.032;15.398;2022-11-15T09:29:38;49.17;;;23.63;;
12145;SDS011;6136;47.032;15.398;2022-11-15T09:32:29;52.73;;;24.23;;
12145;SDS011;6136;47.032;15.398;2022-11-15T09:35:21;52.87;;;23.67;;
12145;SDS011;6136;47.032;15.398;2022-11-15T09:38:08;55.40;;;24.87;;
12145;SDS011;6136;47.032;15.398;2022-11-15T09:40:58;57.60;;;25.40;;
12145;SDS011;6136;47.032;15.398;2022-11-15T09:44:07;48.37;;;23.20;;
12145;SDS011;6136;47.032;15.398;2022-11-15T09:47:25;53.37;;;23.10;;
12145;SDS011;6136;47.032;15.398;2022-11-15T09:50:31;47.50;;;22.17;;
12145;SDS011;6136;47.032;15.398;2022-11-15T09:53:04;47.50;;;21.63;;
12145;SDS011;6136;47.032;15.398;2022-11-15T09:55:34;41.73;;;22.40;;
12145;SDS011;6136;47.032;15.398;2022-11-15T09:58:10;59.23;;;23.07;;
12145;SDS011;6136;47.032;15.398;2022-11-15T10:00:47;49.97;;;21.67;;
12145;SDS011;6136;47.032;15.398;2022-11-15T10:03:22;52.50;;;23.27;;
12145;SDS011;6136;47.032;15.398;2022-11-15T10:05:55;56.20;;;23.60;;
12145;SDS011;6136;47.032;15.398;2022-11-15T10:08:40;50.63;;;23.63;;
12145;SDS011;6136;47.032;15.398;2022-11-15T10:11:15;45.23;;;22.13;;
12145;SDS011;6136;47.032;15.398;2022-11-15T10:14:02;47.13;;;21.37;;
12145;SDS011;6136;47.032;15.398;2022-11-15T10:19:31;45.73;;;21.83;;
12145;SDS011;6136;47.032;15.398;2022-11-15T10:22:12;38.47;;;21.10;;
12145;SDS011;6136;47.032;15.398;2022-11-15T10:24:49;40.77;;;19.43;;
12145;SDS011;6136;47.032;15.398;2022-11-15T10:27:19;37.40;;;19.80;;
12145;SDS011;6136;47.032;15.398;2022-11-15T10:29:48;43.30;;;20.70;;
12145;SDS011;6136;47.032;15.398;2022-11-15T10:32:18;36.00;;;19.00;;
12145;SDS011;6136;47.032;15.398;2022-11-15T10:34:49;45.57;;;21.70;;
12145;SDS011;6136;47.032;15.398;2022-11-15T10:37:26;33.57;;;18.00;;
12145;SDS011;6136;47.032;15.398;2022-11-15T10:40:02;29.07;;;17.13;;
12145;SDS011;6136;47.032;15.398;2022-11-15T10:42:31;34.93;;;16.93;;
12145;SDS011;6136;47.032;15.398;2022-11-15T10:44:59;27.50;;;15.33;;
12145;SDS011;6136;47.032;15.398;2022-11-15T10:47:28;32.80;;;16.57;;
12145;SDS011;6136;47.032;15.398;2022-11-15T10:50:06;36.97;;;17.30;;
12145;SDS011;6136;47.032;15.398;2022-11-15T10:52:53;35.60;;;19.40;;
12145;SDS011;6136;47.032;15.398;2022-11-15T10:55:23;35.33;;;18.03;;
12145;SDS011;6136;47.032;15.398;2022-11-15T10:57:54;30.43;;;16.33;;
12145;SDS011;6136;47.032;15.398;2022-11-15T11:00:35;35.20;;;17.60;;
12145;SDS011;6136;47.032;15.398;2022-11-15T11:03:08;31.73;;;18.13;;
12145;SDS011;6136;47.032;15.398;2022-11-15T11:06:06;34.83;;;17.77;;
12145;SDS011;6136;47.032;15.398;2022-11-15T11:08:36;30.33;;;17.67;;
12145;SDS011;6136;47.032;15.398;2022-11-15T11:11:05;37.00;;;18.50;;
12145;SDS011;6136;47.032;15.398;2022-11-15T11:13:35;34.10;;;18.10;;
12145;SDS011;6136;47.032;15.398;2022-11-15T11:16:09;33.03;;;17.27;;
12145;SDS011;6136;47.032;15.398;2022-11-15T11:18:49;30.57;;;17.00;;
12145;SDS011;6136;47.032;15.398;2022-11-15T11:21:25;35.90;;;18.57;;
12145;SDS011;6136;47.032;15.398;2022-11-15T11:24:06;31.60;;;18.10;;
12145;SDS011;6136;47.032;15.398;2022-11-15T11:26:42;32.03;;;17.80;;
12145;SDS011;6136;47.032;15.398;2022-11-15T11:29:26;27.97;;;16.40;;
12145;SDS011;6136;47.032;15.398;2022-11-15T11:32:08;32.77;;;17.30;;
12145;SDS011;6136;47.032;15.398;2022-11-15T11:34:54;33.70;;;17.83;;
12145;SDS011;6136;47.032;15.398;2022-11-15T11:37:32;35.87;;;18.80;;
12145;SDS011;6136;47.032;15.398;2022-11-15T11:40:10;34.50;;;17.23;;
12145;SDS011;6136;47.032;15.398;2022-11-15T11:42:50;37.37;;;18.13;;
12145;SDS011;6136;47.032;15.398;2022-11-15T11:45:29;39.63;;;18.73;;
12145;SDS011;6136;47.032;15.398;2022-11-15T11:48:20;37.40;;;18.20;;
12145;SDS011;6136;47.032;15.398;2022-11-15T11:50:59;33.70;;;18.60;;
12145;SDS011;6136;47.032;15.398;2022-11-15T11:53:35;37.63;;;19.33;;
12145;SDS011;6136;47.032;15.398;2022-11-15T11:56:11;33.27;;;17.53;;
12145;SDS011;6136;47.032;15.398;2022-11-15T11:58:47;40.53;;;20.07;;
12145;SDS011;6136;47.032;15.398;2022-11-15T12:01:16;31.07;;;17.20;;
12145;SDS011;6136;47.032;15.398;2022-11-15T12:03:51;33.00;;;17.27;;
12145;SDS011;6136;47.032;15.398;2022-11-15T12:06:26;34.00;;;18.87;;
12145;SDS011;6136;47.032;15.398;2022-11-15T12:09:02;37.40;;;18.67;;
12145;SDS011;6136;47.032;15.398;2022-11-15T12:11:36;37.13;;;17.70;;
12145;SDS011;6136;47.032;15.398;2022-11-15T12:14:22;38.07;;;17.77;;
12145;SDS011;6136;47.032;15.398;2022-11-15T12:16:57;33.60;;;16.20;;
12145;SDS011;6136;47.032;15.398;2022-11-15T12:19:26;34.47;;;17.47;;
12145;SDS011;6136;47.032;15.398;2022-11-15T12:21:56;34.33;;;16.80;;
12145;SDS011;6136;47.032;15.398;2022-11-15T12:24:32;37.47;;;18.43;;
12145;SDS011;6136;47.032;15.398;2022-11-15T12:27:11;36.73;;;18.33;;
12145;SDS011;6136;47.032;15.398;2022-11-15T12:29:51;36.83;;;18.80;;
12145;SDS011;6136;47.032;15.398;2022-11-15T12:32:24;37.90;;;19.17;;
12145;SDS011;6136;47.032;15.398;2022-11-15T12:34:56;37.00;;;17.67;;
12145;SDS011;6136;47.032;15.398;2022-11-15T12:37:32;39.90;;;18.77;;
12145;SDS011;6136;47.032;15.398;2022-11-15T12:40:33;33.70;;;18.60;;
12145;SDS011;6136;47.032;15.398;2022-11-15T12:46:11;43.03;;;19.70;;
12145;SDS011;6136;47.032;15.398;2022-11-15T12:48:51;34.77;;;17.97;;
12145;SDS011;6136;47.032;15.398;2022-11-15T12:51:22;31.43;;;15.97;;
12145;SDS011;6136;47.032;15.398;2022-11-15T12:57:27;35.53;;;18.13;;
12145;SDS011;6136;47.032;15.398;2022-11-15T12:59:58;35.90;;;18.83;;
12145;SDS011;6136;47.032;15.398;2022-11-15T13:02:29;34.93;;;18.10;;
12145;SDS011;6136;47.032;15.398;2022-11-15T13:08:06;30.47;;;16.67;;
12145;SDS011;6136;47.032;15.398;2022-11-15T13:10:34;31.80;;;15.57;;
12145;SDS011;6136;47.032;15.398;2022-11-15T13:13:06;33.40;;;15.90;;
12145;SDS011;6136;47.032;15.398;2022-11-15T13:15:44;32.30;;;17.07;;
12145;SDS011;6136;47.032;15.398;2022-11-15T13:18:28;26.83;;;16.27;;
12145;SDS011;6136;47.032;15.398;2022-11-15T13:21:17;29.70;;;15.93;;
12145;SDS011;6136;47.032;15.398;2022-11-15T13:24:12;29.83;;;16.80;;
12145;SDS011;6136;47.032;15.398;2022-11-15T13:26:42;32.93;;;16.10;;
12145;SDS011;6136;47.032;15.398;2022-11-15T13:29:16;37.37;;;16.67;;
12145;SDS011;6136;47.032;15.398;2022-11-15T13:31:45;30.30;;;16.50;;
12145;SDS011;6136;47.032;15.398;2022-11-15T13:34:24;30.83;;;16.10;;
12145;SDS011;6136;47.032;15.398;2022-11-15T13:37:27;31.27;;;16.27;;
12145;SDS011;6136;47.032;15.398;2022-11-15T13:40:10;32.67;;;17.27;;
12145;SDS011;6136;47.032;15.398;2022-11-15T13:42:47;30.53;;;17.37;;
12145;SDS011;6136;47.032;15.398;2022-11-15T13:45:17;27.40;;;16.83;;
12145;SDS011;6136;47.032;15.398;2022-11-15T13:47:51;29.40;;;16.40;;
12145;SDS011;6136;47.032;15.398;2022-11-15T13:50:21;33.03;;;17.53;;
12145;SDS011;6136;47.032;15.398;2022-11-15T13:52:52;31.07;;;17.60;;
12145;SDS011;6136;47.032;15.398;2022-11-15T13:55:24;31.23;;;17.20;;
12145;SDS011;6136;47.032;15.398;2022-11-15T13:57:53;32.13;;;16.50;;
12145;SDS011;6136;47.032;15.398;2022-11-15T14:00:27;27.97;;;17.03;;
12145;SDS011;6136;47.032;15.398;2022-11-15T14:03:08;35.63;;;18.00;;
12145;SDS011;6136;47.032;15.398;2022-11-15T14:05:44;28.53;;;16.47;;
12145;SDS011;6136;47.032;15.398;2022-11-15T14:08:30;27.27;;;16.53;;
12145;SDS011;6136;47.032;15.398;2022-11-15T14:11:08;24.83;;;14.87;;
12145;SDS011;6136;47.032;15.398;2022-11-15T14:13:40;26.10;;;14.73;;
12145;SDS011;6136;47.032;15.398;2022-11-15T14:16:14;25.33;;;14.43;;
12145;SDS011;6136;47.032;15.398;2022-11-15T14:18:44;25.10;;;14.80;;
12145;SDS011;6136;47.032;15.398;2022-11-15T14:21:14;22.93;;;13.43;;
12145;SDS011;6136;47.032;15.398;2022-11-15T14:23:42;21.77;;;13.20;;
12145;SDS011;6136;47.032;15.398;2022-11-15T14:26:24;25.73;;;13.40;;
12145;SDS011;6136;47.032;15.398;2022-11-15T14:28:54;27.63;;;14.87;;
12145;SDS011;6136;47.032;15.398;2022-11-15T14:31:24;28.50;;;14.83;;
12145;SDS011;6136;47.032;15.398;2022-11-15T14:33:52;24.87;;;14.23;;
12145;SDS011;6136;47.032;15.398;2022-11-15T14:36:20;29.77;;;14.03;;
12145;SDS011;6136;47.032;15.398;2022-11-15T14:38:48;22.73;;;13.77;;
12145;SDS011;6136;47.032;15.398;2022-11-15T14:41:17;29.40;;;14.70;;
12145;SDS011;6136;47.032;15.398;2022-11-15T14:43:47;25.53;;;15.07;;
12145;SDS011;6136;47.032;15.398;2022-11-15T14:46:16;23.43;;;13.63;;
12145;SDS011;6136;47.032;15.398;2022-11-15T14:48:46;25.37;;;14.17;;
12145;SDS011;6136;47.032;15.398;2022-11-15T14:51:15;29.60;;;14.50;;
12145;SDS011;6136;47.032;15.398;2022-11-15T14:53:45;29.40;;;16.63;;
12145;SDS011;6136;47.032;15.398;2022-11-15T14:56:14;28.73;;;15.43;;
12145;SDS011;6136;47.032;15.398;2022-11-15T14:58:42;28.80;;;15.13;;
12145;SDS011;6136;47.032;15.398;2022-11-15T15:01:12;27.30;;;14.83;;
12145;SDS011;6136;47.032;15.398;2022-11-15T15:03:41;25.53;;;14.90;;
12145;SDS011;6136;47.032;15.398;2022-11-15T15:06:12;28.80;;;15.60;;
12145;SDS011;6136;47.032;15.398;2022-11-15T15:08:43;23.60;;;13.83;;
12145;SDS011;6136;47.032;15.398;2022-11-15T15:11:12;25.43;;;13.53;;
12145;SDS011;6136;47.032;15.398;2022-11-15T15:13:42;24.23;;;14.03;;
12145;SDS011;6136;47.032;15.398;2022-11-15T15:16:10;22.23;;;13.57;;
12145;SDS011;6136;47.032;15.398;2022-11-15T15:18:38;25.23;;;14.73;;
12145;SDS011;6136;47.032;15.398;2022-11-15T15:21:12;27.10;;;15.23;;
12145;SDS011;6136;47.032;15.398;2022-11-15T15:23:47;24.03;;;13.67;;
12145;SDS011;6136;47.032;15.398;2022-11-15T15:26:15;25.27;;;14.70;;
12145;SDS011;6136;47.032;15.398;2022-11-15T15:28:44;25.70;;;13.60;;
12145;SDS011;6136;47.032;15.398;2022-11-15T15:31:14;25.10;;;14.40;;
12145;SDS011;6136;47.032;15.398;2022-11-15T15:33:42;23.17;;;13.50;;
12145;SDS011;6136;47.032;15.398;2022-11-15T15:36:10;25.73;;;15.47;;
12145;SDS011;6136;47.032;15.398;2022-11-15T15:38:41;21.33;;;13.67;;
12145;SDS011;6136;47.032;15.398;2022-11-15T15:41:13;27.00;;;14.30;;
12145;SDS011;6136;47.032;15.398;2022-11-15T15:43:42;25.80;;;13.83;;
12145;SDS011;6136;47.032;15.398;2022-11-15T15:46:11;26.47;;;14.33;;
12145;SDS011;6136;47.032;15.398;2022-11-15T15:48:41;26.33;;;13.97;;
12145;SDS011;6136;47.032;15.398;2022-11-15T15:51:10;21.03;;;13.80;;
12145;SDS011;6136;47.032;15.398;2022-11-15T15:53:46;26.80;;;14.53;;
12145;SDS011;6136;47.032;15.398;2022-11-15T15:56:17;26.10;;;14.50;;
12145;SDS011;6136;47.032;15.398;2022-11-15T15:58:45;27.93;;;15.00;;
12145;SDS011;6136;47.032;15.398;2022-11-15T16:01:13;21.20;;;12.90;;
12145;SDS011;6136;47.032;15.398;2022-11-15T16:03:41;25.13;;;14.83;;
12145;SDS011;6136;47.032;15.398;2022-11-15T16:06:32;27.30;;;13.50;;
12145;SDS011;6136;47.032;15.398;2022-11-15T16:09:04;25.53;;;14.10;;
12145;SDS011;6136;47.032;15.398;2022-11-15T16:11:41;21.07;;;12.97;;
12145;SDS011;6136;47.032;15.398;2022-11-15T16:14:09;22.43;;;14.00;;
12145;SDS011;6136;47.032;15.398;2022-11-15T16:16:37;21.80;;;13.10;;